Terminal Aerodrome Forecast
Issued by NWS

Home | Current Version | Previous Version | Text Only | Print | Product List | Glossary On
Versions: 1 2 3 4 5 6 7 8 9 10 11 12 13 14 15 16 17 18 19 20 21 22 23 24 25 26 27 28 29 30
000
FTUS45 KGJT 022220 AAA
TAFDRO
TAF AMD
KDRO 022220Z 0222/0318 06010KT P6SM VCSH SCT045 OVC120
      TEMPO 0222/0302 5SM -SHSN BR OVC030
     FM030200 VRB03KT P6SM VCSH OVC040
     FM030600 01003KT P6SM OVC050
     FM031000 03004KT P6SM SCT100=

USA.gov is the U.S. government's official web portal to all federal, state and local government web resources and services.